Time;durP1;ratioP1;P1;durP2;ratioP2;P2;SDS_P1;SDS_P2;PMS_P1;PMS_P2;Temp;Humidity;BMP_temperature;BMP_pressure;BME280_temperature;BME280_humidity;BME280_pressure;Samples;Min_cycle;Max_cycle;Signal;HPM_P1;HPM_P2
2021/05/25 00:00:27;;;;;;;1.70;1.08;;;8.90;99.90;;;;;;5094584;28;20227;-73
2021/05/25 00:02:54;;;;;;;1.33;1.23;;;9.00;99.90;;;;;;5094788;28;20227;-73
2021/05/25 00:05:23;;;;;;;1.65;0.85;;;8.90;99.90;;;;;;5094744;28;20204;-73
2021/05/25 00:07:50;;;;;;;1.90;1.00;;;8.90;99.90;;;;;;5076388;28;20675;-72
2021/05/25 00:10:18;;;;;;;1.83;1.40;;;8.80;99.90;;;;;;5074699;28;20250;-75
2021/05/25 00:12:45;;;;;;;1.75;1.02;;;8.70;99.90;;;;;;5074743;28;20228;-73
2021/05/25 00:15:15;;;;;;;2.15;1.27;;;8.70;99.90;;;;;;5074093;28;20233;-73
2021/05/25 00:17:41;;;;;;;1.98;1.33;;;8.60;99.90;;;;;;5074225;28;20262;-73
2021/05/25 00:20:10;;;;;;;1.40;1.08;;;8.50;99.90;;;;;;5073897;28;20327;-73
2021/05/25 00:22:38;;;;;;;1.40;1.00;;;8.40;99.90;;;;;;5074463;28;20224;-73
2021/05/25 00:25:06;;;;;;;1.15;1.00;;;8.40;99.90;;;;;;5074392;28;20204;-73
2021/05/25 00:27:33;;;;;;;1.73;0.93;;;8.40;99.90;;;;;;5074243;28;20697;-73
2021/05/25 00:29:59;;;;;;;1.30;0.93;;;8.50;99.90;;;;;;5074099;28;20206;-73
2021/05/25 00:32:26;;;;;;;3.60;1.00;;;8.40;99.90;;;;;;5074083;28;20232;-73
2021/05/25 00:34:52;;;;;;;1.60;1.13;;;8.40;99.90;;;;;;5074902;28;20295;-73
2021/05/25 00:37:18;;;;;;;1.20;1.00;;;8.40;99.90;;;;;;5074005;28;20727;-73
2021/05/25 00:39:45;;;;;;;3.13;1.88;;;8.30;99.90;;;;;;5074587;28;20225;-73
2021/05/25 00:42:11;;;;;;;1.33;1.23;;;8.30;99.90;;;;;;5073481;28;20231;-73
2021/05/25 00:44:38;;;;;;;1.10;1.00;;;8.30;99.90;;;;;;5073798;28;20211;-73
2021/05/25 00:47:04;;;;;;;3.90;1.23;;;8.30;99.90;;;;;;5074124;28;20200;-73
2021/05/25 00:49:31;;;;;;;3.90;1.10;;;8.30;99.90;;;;;;5074665;28;20197;-73
2021/05/25 00:51:57;;;;;;;2.67;1.05;;;8.30;99.90;;;;;;5074848;28;20197;-73
2021/05/25 00:54:23;;;;;;;1.52;1.15;;;8.20;99.90;;;;;;5074224;28;20204;-73
2021/05/25 00:56:50;;;;;;;5.15;1.10;;;8.20;99.90;;;;;;5074650;28;20689;-73
2021/05/25 00:59:16;;;;;;;1.20;1.00;;;8.20;99.90;;;;;;5074097;28;20220;-73
2021/05/25 01:01:43;;;;;;;1.73;1.20;;;8.20;99.90;;;;;;5074744;28;20205;-73
2021/05/25 01:04:10;;;;;;;1.85;1.30;;;8.10;99.90;;;;;;5074856;28;20216;-73
2021/05/25 01:06:36;;;;;;;2.38;1.52;;;8.10;99.90;;;;;;5074624;28;20552;-73
2021/05/25 01:09:03;;;;;;;4.10;1.35;;;8.10;99.90;;;;;;5073985;28;20200;-73
2021/05/25 01:11:30;;;;;;;2.10;1.20;;;8.10;99.90;;;;;;5074404;28;20212;-73
2021/05/25 01:13:58;;;;;;;2.40;1.30;;;8.10;99.90;;;;;;5074578;28;20231;-73
2021/05/25 01:16:26;;;;;;;2.22;1.67;;;8.10;99.90;;;;;;5073988;28;20579;-73
2021/05/25 01:18:53;;;;;;;1.70;1.35;;;8.10;99.90;;;;;;5073353;28;20219;-73
2021/05/25 01:21:20;;;;;;;1.40;1.00;;;8.00;99.90;;;;;;5073647;28;20200;-73
2021/05/25 01:23:48;;;;;;;1.75;1.20;;;8.00;99.90;;;;;;5073982;28;20216;-73
2021/05/25 01:26:16;;;;;;;2.22;1.20;;;8.00;99.90;;;;;;5073815;28;20729;-73
2021/05/25 01:28:44;;;;;;;2.85;1.40;;;7.90;99.90;;;;;;5073054;28;20228;-73
2021/05/25 01:31:10;;;;;;;3.95;1.52;;;7.90;99.90;;;;;;5072646;28;20207;-73
2021/05/25 01:33:37;;;;;;;2.25;1.45;;;7.90;99.90;;;;;;5072464;28;20235;-73
2021/05/25 01:36:04;;;;;;;1.40;1.10;;;7.90;99.90;;;;;;5072652;28;20727;-73
2021/05/25 01:38:31;;;;;;;3.30;1.42;;;8.00;99.90;;;;;;5071778;28;20209;-73
2021/05/25 01:40:59;;;;;;;2.30;1.65;;;8.10;99.90;;;;;;5072739;28;20227;-73
2021/05/25 01:43:26;;;;;;;2.80;1.40;;;8.10;99.90;;;;;;5072809;28;20221;-73
2021/05/25 01:45:52;;;;;;;4.10;1.45;;;8.00;99.90;;;;;;5073668;28;20207;-73
2021/05/25 01:48:19;;;;;;;2.65;1.55;;;8.00;99.90;;;;;;5073020;28;20204;-73
2021/05/25 01:50:45;;;;;;;1.85;1.10;;;7.90;99.90;;;;;;5073123;28;20619;-73
2021/05/25 01:53:13;;;;;;;1.42;1.20;;;7.90;99.90;;;;;;5073061;28;20715;-73
2021/05/25 01:55:42;;;;;;;2.58;1.40;;;7.90;99.90;;;;;;5073401;28;20215;-73
2021/05/25 01:58:12;;;;;;;2.88;1.50;;;7.90;99.90;;;;;;5072633;28;20204;-73
2021/05/25 02:00:40;;;;;;;3.50;1.13;;;7.80;99.90;;;;;;5072855;28;20235;-73
2021/05/25 02:03:06;;;;;;;3.47;1.67;;;7.80;99.90;;;;;;5073234;28;20217;-73
2021/05/25 02:05:33;;;;;;;2.72;1.50;;;7.80;99.90;;;;;;5073001;28;20742;-73
2021/05/25 02:07:59;;;;;;;3.35;1.20;;;7.80;99.90;;;;;;5072720;28;20200;-73
2021/05/25 02:10:28;;;;;;;2.60;1.50;;;7.80;99.90;;;;;;5072812;28;20200;-73
2021/05/25 02:12:57;;;;;;;2.35;1.10;;;7.80;99.90;;;;;;5072888;28;20665;-73
2021/05/25 02:15:24;;;;;;;1.25;1.08;;;7.80;99.90;;;;;;5072073;28;20687;-73
2021/05/25 02:17:50;;;;;;;1.50;1.10;;;7.80;99.90;;;;;;5072346;28;20209;-73
2021/05/25 02:20:17;;;;;;;2.08;1.38;;;7.80;99.90;;;;;;5072383;28;20734;-73
2021/05/25 02:22:44;;;;;;;1.42;1.30;;;7.80;99.90;;;;;;5071843;28;20224;-73
2021/05/25 02:25:10;;;;;;;1.75;1.15;;;7.70;99.90;;;;;;5072095;28;20279;-73
2021/05/25 02:27:37;;;;;;;1.52;1.10;;;7.70;99.90;;;;;;5072075;28;20662;-73
2021/05/25 02:30:04;;;;;;;2.28;1.08;;;7.70;99.90;;;;;;5072407;28;20197;-73
2021/05/25 02:32:31;;;;;;;4.85;1.52;;;7.70;99.90;;;;;;5071700;28;20236;-73
2021/05/25 02:34:57;;;;;;;2.67;1.10;;;7.70;99.90;;;;;;5071641;28;20204;-73
2021/05/25 02:37:24;;;;;;;1.75;1.45;;;7.70;99.90;;;;;;5071593;28;20591;-73
2021/05/25 02:39:50;;;;;;;4.30;1.60;;;7.70;99.90;;;;;;5071282;28;20255;-73
2021/05/25 02:42:16;;;;;;;2.42;1.00;;;7.70;99.90;;;;;;5072072;28;20220;-73
2021/05/25 02:44:42;;;;;;;2.30;1.33;;;7.60;99.90;;;;;;5072152;28;20257;-73
2021/05/25 02:47:08;;;;;;;2.05;1.02;;;7.60;99.90;;;;;;5071611;28;20200;-73
2021/05/25 02:49:35;;;;;;;1.77;1.25;;;7.60;99.90;;;;;;5072024;28;20200;-73
2021/05/25 02:52:02;;;;;;;1.65;1.25;;;7.60;99.90;;;;;;5071465;28;20217;-73
2021/05/25 02:54:28;;;;;;;4.95;1.30;;;7.50;99.90;;;;;;5071388;28;20200;-73
2021/05/25 02:56:54;;;;;;;3.78;1.30;;;7.50;99.90;;;;;;5071920;28;20204;-73
2021/05/25 02:59:21;;;;;;;1.30;1.20;;;7.50;99.90;;;;;;5071123;28;20255;-74
2021/05/25 03:01:47;;;;;;;2.33;1.00;;;7.50;99.90;;;;;;5071617;28;20223;-73
2021/05/25 03:04:13;;;;;;;1.13;1.02;;;7.50;99.90;;;;;;5070305;28;20661;-73
2021/05/25 03:06:40;;;;;;;1.90;1.10;;;7.50;99.90;;;;;;5071512;28;20206;-73
2021/05/25 03:09:07;;;;;;;2.45;1.10;;;7.50;99.90;;;;;;5070932;28;20211;-73
2021/05/25 03:11:33;;;;;;;2.40;1.40;;;7.50;99.90;;;;;;5071404;28;20208;-73
2021/05/25 03:13:59;;;;;;;1.80;1.10;;;7.50;99.90;;;;;;5071285;28;20216;-73
2021/05/25 03:16:25;;;;;;;1.80;1.25;;;7.50;99.90;;;;;;5071065;28;20207;-73
2021/05/25 03:18:52;;;;;;;5.75;1.40;;;7.50;99.90;;;;;;5071180;28;20205;-73
2021/05/25 03:21:18;;;;;;;5.00;1.42;;;7.50;99.90;;;;;;5071180;28;20577;-73
2021/05/25 03:23:46;;;;;;;2.60;1.40;;;7.50;99.90;;;;;;5070874;28;20221;-73
2021/05/25 03:26:12;;;;;;;3.97;1.17;;;7.50;99.90;;;;;;5071086;28;20196;-73
2021/05/25 03:28:38;;;;;;;4.05;1.30;;;7.40;99.90;;;;;;5071256;28;20204;-73
2021/05/25 03:31:05;;;;;;;1.77;1.10;;;7.40;99.90;;;;;;5071379;28;20258;-73
2021/05/25 03:33:31;;;;;;;1.50;1.05;;;7.50;99.90;;;;;;5071361;28;20232;-73
2021/05/25 03:35:58;;;;;;;1.77;1.25;;;7.40;99.90;;;;;;5071220;28;20230;-72
2021/05/25 03:38:24;;;;;;;2.55;1.15;;;7.40;99.90;;;;;;5071619;28;20204;-73
2021/05/25 03:40:51;;;;;;;2.90;1.35;;;7.40;99.90;;;;;;5072071;28;20235;-73
2021/05/25 03:43:18;;;;;;;2.55;1.25;;;7.40;99.90;;;;;;5071142;28;20221;-73
2021/05/25 03:45:44;;;;;;;1.10;1.00;;;7.40;99.90;;;;;;5071525;28;20200;-72
2021/05/25 03:48:10;;;;;;;2.60;1.25;;;7.40;99.90;;;;;;5071639;28;20208;-72
2021/05/25 03:50:37;;;;;;;2.53;1.10;;;7.30;99.90;;;;;;5071107;28;20204;-71
2021/05/25 03:53:03;;;;;;;2.58;1.20;;;7.30;99.90;;;;;;5071061;28;20222;-71
2021/05/25 03:55:45;;;;;;;3.25;1.58;;;7.30;99.90;;;;;;5070596;28;20204;-72
2021/05/25 04:00:58;;;;;;;1.73;1.20;;;7.30;99.90;;;;;;5090565;28;20261;-72
2021/05/25 04:03:24;;;;;;;1.63;1.10;;;7.30;99.90;;;;;;5090312;28;20263;-71
2021/05/25 04:05:51;;;;;;;1.35;1.10;;;7.30;99.90;;;;;;5090727;28;20204;-72
2021/05/25 04:08:17;;;;;;;1.30;0.90;;;7.30;99.90;;;;;;5089379;28;20207;-72
2021/05/25 04:10:44;;;;;;;2.70;1.10;;;7.40;99.90;;;;;;5090468;28;20685;-71
2021/05/25 04:13:11;;;;;;;2.03;1.10;;;7.40;99.90;;;;;;5090479;28;20232;-70
2021/05/25 04:15:38;;;;;;;2.95;1.10;;;7.40;99.90;;;;;;5093507;28;20226;-71
2021/05/25 04:18:05;;;;;;;0.90;0.80;;;7.40;99.90;;;;;;5093814;28;20200;-70
2021/05/25 04:20:32;;;;;;;1.35;0.82;;;7.40;99.90;;;;;;5094582;28;20224;-70
2021/05/25 04:22:58;;;;;;;2.83;1.15;;;7.40;99.90;;;;;;5094499;28;20230;-70
2021/05/25 04:25:26;;;;;;;1.27;1.00;;;7.40;99.90;;;;;;5094014;28;20199;-70
2021/05/25 04:27:52;;;;;;;1.88;0.90;;;7.40;99.90;;;;;;5093656;28;20257;-71
2021/05/25 04:30:21;;;;;;;2.90;1.20;;;7.40;99.90;;;;;;5093711;28;20200;-71
2021/05/25 04:32:47;;;;;;;1.42;1.05;;;7.50;99.90;;;;;;5093940;28;20586;-70
2021/05/25 04:35:14;;;;;;;1.73;0.90;;;7.50;99.90;;;;;;5093764;28;20196;-70
2021/05/25 04:37:40;;;;;;;2.65;1.15;;;7.50;99.90;;;;;;5094576;28;20814;-70
2021/05/25 04:40:07;;;;;;;2.30;1.45;;;7.50;99.90;;;;;;5094024;28;20273;-71
2021/05/25 04:42:33;;;;;;;4.00;1.10;;;7.50;99.90;;;;;;5094355;28;20613;-70
2021/05/25 04:45:00;;;;;;;1.48;0.95;;;7.60;99.90;;;;;;5094178;28;20203;-71
2021/05/25 04:47:27;;;;;;;1.05;0.80;;;7.60;99.90;;;;;;5093635;28;20196;-71
2021/05/25 04:49:53;;;;;;;1.08;0.85;;;7.70;99.90;;;;;;5093662;28;20663;-71
2021/05/25 04:52:19;;;;;;;1.52;0.90;;;7.80;99.90;;;;;;5093826;28;20216;-70
2021/05/25 04:54:45;;;;;;;1.00;0.90;;;7.80;99.90;;;;;;5093613;28;20204;-71
2021/05/25 04:57:12;;;;;;;0.93;0.80;;;7.90;99.90;;;;;;5093992;28;20199;-71
2021/05/25 04:59:38;;;;;;;0.93;0.82;;;8.00;99.90;;;;;;5094132;28;20686;-71
2021/05/25 05:02:07;;;;;;;2.50;1.00;;;8.10;99.90;;;;;;5094000;28;20220;-71
2021/05/25 05:04:34;;;;;;;2.08;1.00;;;8.10;99.90;;;;;;5094562;28;20208;-70
2021/05/25 05:07:01;;;;;;;1.58;0.98;;;8.10;99.90;;;;;;5093718;28;20225;-71
2021/05/25 05:09:27;;;;;;;1.73;1.27;;;8.10;99.90;;;;;;5093019;28;20196;-71
2021/05/25 05:11:53;;;;;;;2.30;1.02;;;8.10;99.90;;;;;;5093674;28;20211;-71
2021/05/25 05:14:19;;;;;;;1.90;0.95;;;8.10;99.90;;;;;;5092719;28;20249;-71
2021/05/25 05:16:46;;;;;;;1.65;0.95;;;8.20;99.90;;;;;;5093096;28;20200;-71
2021/05/25 05:19:12;;;;;;;1.40;1.00;;;8.20;99.90;;;;;;5092562;28;20207;-71
2021/05/25 05:21:39;;;;;;;1.13;0.90;;;8.20;99.90;;;;;;5087539;28;20671;-71
2021/05/25 05:24:06;;;;;;;1.55;1.08;;;8.20;99.90;;;;;;5093513;28;20210;-72
2021/05/25 05:26:32;;;;;;;2.92;0.90;;;8.20;99.90;;;;;;5093402;28;20601;-71
2021/05/25 05:28:58;;;;;;;2.22;1.38;;;8.30;99.90;;;;;;5093579;28;20211;-72
2021/05/25 05:31:25;;;;;;;1.10;1.00;;;8.40;99.90;;;;;;5093553;28;20203;-73
2021/05/25 05:33:51;;;;;;;2.53;1.10;;;8.50;99.90;;;;;;5092628;28;20230;-72
2021/05/25 05:36:18;;;;;;;1.02;0.93;;;8.50;99.90;;;;;;5093408;28;20208;-72
2021/05/25 05:38:46;;;;;;;1.25;0.90;;;8.50;99.90;;;;;;5093409;28;20210;-72
2021/05/25 05:41:12;;;;;;;1.30;1.00;;;8.50;99.90;;;;;;5093310;28;20219;-72
2021/05/25 05:43:38;;;;;;;1.10;0.90;;;8.60;99.90;;;;;;5093203;28;20240;-73
2021/05/25 05:46:05;;;;;;;1.25;1.05;;;8.60;99.90;;;;;;5093749;28;20206;-72
2021/05/25 05:48:31;;;;;;;1.50;1.30;;;8.70;99.90;;;;;;5093490;28;20207;-72
2021/05/25 05:50:58;;;;;;;2.08;1.00;;;8.70;99.90;;;;;;5093797;28;20424;-72
2021/05/25 05:53:24;;;;;;;2.53;1.40;;;8.60;99.90;;;;;;5092631;28;20220;-72
2021/05/25 05:55:51;;;;;;;1.98;1.10;;;8.70;99.90;;;;;;5093075;28;20207;-72
2021/05/25 05:58:18;;;;;;;1.95;1.15;;;8.80;99.90;;;;;;5093541;28;20207;-72
2021/05/25 06:00:44;;;;;;;1.35;1.13;;;8.80;99.90;;;;;;5092783;28;20235;-72
2021/05/25 06:03:12;;;;;;;2.20;1.20;;;8.80;99.90;;;;;;5092714;28;20576;-72
2021/05/25 06:05:38;;;;;;;1.48;0.90;;;8.80;99.90;;;;;;5093143;28;20207;-72
2021/05/25 06:08:05;;;;;;;1.00;0.90;;;8.90;99.90;;;;;;5093569;28;20199;-72
2021/05/25 06:10:33;;;;;;;2.47;1.15;;;8.90;99.90;;;;;;5094133;28;20195;-72
2021/05/25 06:13:00;;;;;;;1.35;0.95;;;9.00;99.90;;;;;;5090701;28;20702;-73
2021/05/25 06:15:27;;;;;;;3.03;1.20;;;9.00;99.90;;;;;;5086240;28;20200;-72
2021/05/25 06:17:54;;;;;;;4.20;1.00;;;9.00;99.90;;;;;;5088771;28;20203;-72
2021/05/25 06:20:20;;;;;;;2.17;1.45;;;9.00;99.90;;;;;;5089869;28;20266;-72
2021/05/25 06:22:47;;;;;;;1.23;1.00;;;9.00;99.90;;;;;;5091298;28;20220;-72
2021/05/25 06:25:16;;;;;;;2.35;1.10;;;9.10;99.90;;;;;;5091804;28;20662;-72
2021/05/25 06:27:42;;;;;;;0.90;0.70;;;9.20;99.90;;;;;;5090024;28;20215;-73
2021/05/25 06:30:11;;;;;;;1.75;1.00;;;9.30;99.90;;;;;;5090683;28;20210;-72
2021/05/25 06:32:38;;;;;;;1.75;1.10;;;9.30;99.90;;;;;;5091221;28;20227;-72
2021/05/25 06:35:06;;;;;;;2.03;1.15;;;9.30;99.90;;;;;;5091007;28;20627;-72
2021/05/25 06:37:32;;;;;;;1.80;1.15;;;9.30;99.90;;;;;;5089060;28;20199;-72
2021/05/25 06:39:59;;;;;;;2.05;0.82;;;9.50;99.90;;;;;;5078660;28;20218;-73
2021/05/25 06:42:26;;;;;;;2.15;1.23;;;9.50;99.90;;;;;;5078755;28;20212;-72
2021/05/25 06:44:52;;;;;;;1.67;0.88;;;9.60;99.90;;;;;;5078904;28;20207;-72
2021/05/25 06:47:19;;;;;;;1.00;0.90;;;9.70;99.90;;;;;;5082696;28;20203;-72
2021/05/25 06:49:45;;;;;;;2.05;0.98;;;9.70;99.90;;;;;;5081588;28;20200;-72
2021/05/25 06:52:12;;;;;;;1.30;1.00;;;9.80;99.90;;;;;;5083055;28;20227;-72
2021/05/25 06:54:38;;;;;;;2.45;1.27;;;9.90;99.90;;;;;;5082139;28;20197;-72
2021/05/25 06:57:05;;;;;;;2.20;1.38;;;10.10;99.90;;;;;;5086389;28;20227;-74
2021/05/25 06:59:33;;;;;;;1.70;1.10;;;10.10;99.90;;;;;;5078719;28;20204;-72
2021/05/25 07:01:59;;;;;;;1.75;1.05;;;10.10;99.90;;;;;;5080034;28;20558;-72
2021/05/25 07:04:26;;;;;;;1.95;1.00;;;10.20;99.90;;;;;;5079213;28;20200;-73
2021/05/25 07:06:52;;;;;;;1.58;1.00;;;10.30;99.90;;;;;;5079389;28;20196;-72
2021/05/25 07:09:19;;;;;;;1.63;1.00;;;10.40;99.90;;;;;;5090188;28;20199;-73
2021/05/25 07:11:45;;;;;;;1.25;1.08;;;10.50;99.90;;;;;;5090189;28;20224;-73
2021/05/25 07:14:11;;;;;;;7.22;1.35;;;10.50;99.90;;;;;;5090435;28;20279;-73
2021/05/25 07:16:37;;;;;;;1.73;1.33;;;10.50;99.90;;;;;;5089522;28;20251;-72
2021/05/25 07:19:04;;;;;;;1.92;0.90;;;10.50;99.90;;;;;;5089863;28;20295;-72
2021/05/25 07:21:31;;;;;;;2.67;0.93;;;10.40;99.90;;;;;;5089982;28;20456;-72
2021/05/25 07:23:57;;;;;;;1.77;1.08;;;10.40;99.90;;;;;;5089756;28;20230;-72
2021/05/25 07:26:24;;;;;;;2.70;1.13;;;10.60;99.90;;;;;;5089057;28;20264;-72
2021/05/25 07:28:51;;;;;;;1.55;0.93;;;10.70;99.90;;;;;;5089654;28;20233;-72
2021/05/25 07:31:18;;;;;;;3.13;1.30;;;10.80;99.90;;;;;;5089766;28;20200;-73
2021/05/25 07:33:45;;;;;;;1.80;1.58;;;10.90;99.90;;;;;;5088951;28;20231;-72
2021/05/25 07:36:11;;;;;;;1.80;1.15;;;11.10;99.90;;;;;;5089304;28;20225;-71
2021/05/25 07:38:38;;;;;;;2.00;1.10;;;11.20;99.90;;;;;;5089823;28;20663;-72
2021/05/25 07:41:05;;;;;;;1.48;0.90;;;11.30;99.90;;;;;;5089549;28;20706;-72
2021/05/25 07:43:31;;;;;;;2.22;1.00;;;11.40;99.90;;;;;;5089618;28;20227;-72
2021/05/25 07:45:57;;;;;;;1.90;1.05;;;11.40;99.90;;;;;;5088813;28;20228;-72
2021/05/25 07:48:24;;;;;;;1.70;1.00;;;11.50;99.90;;;;;;5088803;28;20528;-72
2021/05/25 07:50:50;;;;;;;1.98;1.10;;;11.50;99.90;;;;;;5092320;28;20196;-72
2021/05/25 07:53:17;;;;;;;1.38;1.00;;;11.40;99.90;;;;;;5093984;28;20224;-72
2021/05/25 07:55:44;;;;;;;1.00;0.85;;;11.40;99.90;;;;;;5088496;28;20202;-71
2021/05/25 07:58:10;;;;;;;1.92;1.20;;;11.40;99.90;;;;;;5092973;28;20196;-72
2021/05/25 08:00:37;;;;;;;3.85;0.98;;;11.40;99.90;;;;;;5093128;28;20318;-71
2021/05/25 08:03:03;;;;;;;1.63;1.10;;;11.40;99.90;;;;;;5093816;28;20748;-72
2021/05/25 08:05:31;;;;;;;4.57;1.23;;;11.50;99.90;;;;;;5093654;28;20207;-72
2021/05/25 08:07:59;;;;;;;1.55;1.02;;;11.60;99.20;;;;;;5091956;28;20233;-72
2021/05/25 08:10:25;;;;;;;1.27;1.15;;;11.80;99.90;;;;;;5094339;28;20283;-72
2021/05/25 08:12:52;;;;;;;3.00;1.20;;;12.10;98.70;;;;;;5093190;28;20227;-72
2021/05/25 08:15:19;;;;;;;2.75;0.98;;;12.00;97.80;;;;;;5093209;28;20261;-72
2021/05/25 08:18:01;;;;;;;1.73;1.00;;;12.00;98.70;;;;;;5092832;28;20268;-72
2021/05/25 08:20:27;;;;;;;2.70;1.40;;;12.20;98.00;;;;;;5093294;28;20230;-72
2021/05/25 08:22:55;;;;;;;3.78;1.30;;;12.40;97.10;;;;;;5093336;28;20216;-73
2021/05/25 08:25:23;;;;;;;3.50;1.13;;;12.40;96.60;;;;;;5093443;28;20687;-73
2021/05/25 08:27:50;;;;;;;1.17;0.90;;;12.20;96.50;;;;;;5091824;28;20195;-73
2021/05/25 08:30:19;;;;;;;1.00;0.90;;;12.00;97.00;;;;;;5092837;28;20671;-72
2021/05/25 08:32:46;;;;;;;2.70;1.27;;;12.00;97.80;;;;;;5092891;28;20231;-73
2021/05/25 08:35:13;;;;;;;1.40;1.20;;;12.20;97.60;;;;;;5093206;28;20227;-72
2021/05/25 08:37:39;;;;;;;2.28;1.35;;;12.40;96.90;;;;;;5091960;28;20618;-72
2021/05/25 08:40:08;;;;;;;1.30;0.90;;;12.40;96.70;;;;;;5092627;28;20846;-72
2021/05/25 08:42:35;;;;;;;2.47;1.13;;;12.50;97.10;;;;;;5093151;28;20223;-72
2021/05/25 08:45:03;;;;;;;0.97;0.80;;;12.60;96.40;;;;;;5091642;28;20461;-73
2021/05/25 08:47:31;;;;;;;1.48;1.00;;;12.80;96.60;;;;;;5092014;28;20832;-72
2021/05/25 08:49:57;;;;;;;4.40;1.30;;;12.90;97.00;;;;;;5092288;28;20210;-73
2021/05/25 08:52:23;;;;;;;2.30;1.23;;;13.10;96.10;;;;;;5092521;28;21025;-73
2021/05/25 08:54:50;;;;;;;3.28;1.00;;;12.90;95.60;;;;;;5092407;28;20458;-72
2021/05/25 08:57:16;;;;;;;1.47;0.90;;;12.70;95.90;;;;;;5091543;28;20675;-72
2021/05/25 08:59:42;;;;;;;1.17;0.90;;;12.60;95.80;;;;;;5091818;28;20472;-72
2021/05/25 09:02:13;;;;;;;1.90;1.05;;;12.50;96.20;;;;;;5091540;28;20710;-73
2021/05/25 09:04:59;;;;;;;4.38;1.00;;;12.30;96.50;;;;;;5092681;28;20200;-73
2021/05/25 09:07:37;;;;;;;2.50;1.00;;;12.40;96.60;;;;;;5091218;28;20624;-73
2021/05/25 09:10:04;;;;;;;2.43;1.07;;;12.70;97.10;;;;;;5092145;28;20196;-72
2021/05/25 09:12:37;;;;;;;4.60;1.10;;;12.80;96.80;;;;;;5092078;28;20474;-73
2021/05/25 09:15:05;;;;;;;2.23;1.20;;;13.10;96.60;;;;;;5091785;28;20840;-73
2021/05/25 09:17:31;;;;;;;1.40;1.00;;;13.50;95.40;;;;;;5091366;28;20465;-72
2021/05/25 09:19:59;;;;;;;1.67;0.90;;;13.40;95.50;;;;;;5091493;28;20477;-74
2021/05/25 09:22:27;;;;;;;1.90;1.10;;;13.00;95.50;;;;;;5091869;28;20484;-73
2021/05/25 09:24:54;;;;;;;1.70;1.17;;;13.00;95.30;;;;;;5091515;28;20211;-73
2021/05/25 09:27:32;;;;;;;2.40;1.20;;;13.20;95.90;;;;;;5090525;28;20207;-72
2021/05/25 09:30:28;;;;;;;2.20;1.17;;;13.20;94.80;;;;;;5090920;28;20460;-73
2021/05/25 09:32:57;;;;;;;1.58;1.20;;;13.10;94.60;;;;;;5091925;28;20520;-73
2021/05/25 09:35:26;;;;;;;1.47;1.17;;;13.00;95.50;;;;;;5091863;28;20196;-74
2021/05/25 09:37:54;;;;;;;2.55;1.17;;;13.10;94.60;;;;;;5090273;28;20827;-73
2021/05/25 09:40:24;;;;;;;3.43;1.00;;;13.10;95.70;;;;;;5092222;28;20223;-73
2021/05/25 09:42:53;;;;;;;2.67;1.20;;;13.10;94.70;;;;;;5090937;28;20477;-73
2021/05/25 09:45:20;;;;;;;2.40;0.90;;;13.10;94.20;;;;;;5091477;28;20216;-73
2021/05/25 09:47:51;;;;;;;3.83;1.50;;;13.00;94.50;;;;;;5090062;28;21013;-74
2021/05/25 09:50:18;;;;;;;2.73;1.20;;;13.10;95.20;;;;;;5091758;28;20826;-74
2021/05/25 09:53:01;;;;;;;3.15;1.08;;;13.30;95.70;;;;;;5091337;28;20478;-74
2021/05/25 09:55:28;;;;;;;3.33;1.20;;;13.60;95.80;;;;;;5091902;28;20283;-74
2021/05/25 09:57:55;;;;;;;1.97;1.43;;;14.00;95.00;;;;;;5089847;28;20487;-74
2021/05/25 10:00:31;;;;;;;5.03;1.60;;;14.00;95.00;;;;;;5091379;28;20489;-73
2021/05/25 10:03:09;;;;;;;2.07;1.10;;;14.00;93.80;;;;;;5084056;28;20530;-74
2021/05/25 10:05:36;;;;;;;3.63;1.17;;;13.90;94.30;;;;;;5091230;28;20823;-73
2021/05/25 10:08:04;;;;;;;3.60;1.50;;;14.10;95.10;;;;;;5089375;28;20828;-72
2021/05/25 10:10:33;;;;;;;5.07;1.57;;;14.40;96.30;;;;;;5089353;28;20458;-72
2021/05/25 10:12:59;;;;;;;3.60;1.43;;;14.70;94.50;;;;;;5079402;28;20996;-71
2021/05/25 10:15:28;;;;;;;7.50;1.43;;;14.90;93.60;;;;;;5081124;28;20442;-72
2021/05/25 10:20:37;;;;;;;1.83;1.10;;;14.90;93.00;;;;;;5068741;28;20470;-72
2021/05/25 10:23:04;;;;;;;3.00;1.40;;;14.70;93.60;;;;;;5079993;28;20517;-72
2021/05/25 10:25:34;;;;;;;1.30;1.07;;;14.90;92.90;;;;;;5077007;28;20554;-73
2021/05/25 10:28:05;;;;;;;3.50;2.00;;;15.00;92.50;;;;;;5082056;28;20454;-73
2021/05/25 10:30:40;;;;;;;5.27;1.27;;;15.00;93.60;;;;;;5079385;28;20458;-71
2021/05/25 10:33:27;;;;;;;2.30;1.13;;;15.20;91.50;;;;;;5080237;28;20488;-73
2021/05/25 10:35:55;;;;;;;3.43;1.70;;;15.00;90.90;;;;;;5081511;28;20464;-72
2021/05/25 10:38:25;;;;;;;3.40;1.37;;;14.60;91.00;;;;;;5079456;28;20467;-71
2021/05/25 10:40:52;;;;;;;1.97;1.10;;;14.40;91.50;;;;;;5079465;28;20490;-72
2021/05/25 10:43:38;;;;;;;1.70;1.00;;;14.20;91.40;;;;;;5081277;28;20991;-71
2021/05/25 10:46:22;;;;;;;3.40;1.77;;;13.90;92.60;;;;;;5080941;28;20458;-71
2021/05/25 10:49:13;;;;;;;3.77;1.10;;;13.90;93.20;;;;;;5081120;28;20511;-71
2021/05/25 10:52:13;;;;;;;1.73;1.30;;;13.60;92.80;;;;;;5080148;28;20488;-72
2021/05/25 10:54:58;;;;;;;2.07;1.20;;;13.60;93.10;;;;;;5063804;28;20453;-71
2021/05/25 10:57:46;;;;;;;4.20;1.17;;;13.50;92.90;;;;;;5080512;28;20454;-71
2021/05/25 11:00:15;;;;;;;1.70;1.30;;;13.20;93.60;;;;;;5081373;28;20895;-71
2021/05/25 11:02:50;;;;;;;2.47;1.40;;;13.10;93.90;;;;;;5080137;28;20494;-70
2021/05/25 11:05:52;;;;;;;3.60;1.40;;;13.10;94.40;;;;;;5079935;28;20825;-71
2021/05/25 11:08:43;;;;;;;1.20;0.90;;;13.20;94.20;;;;;;5074455;28;20545;-71
2021/05/25 11:11:29;;;;;;;2.33;1.30;;;13.20;94.00;;;;;;5070265;28;21015;-71
2021/05/25 11:13:55;;;;;;;2.80;1.30;;;13.00;94.20;;;;;;5070691;28;20478;-71
2021/05/25 11:16:34;;;;;;;3.00;1.40;;;12.80;93.70;;;;;;5070940;28;20454;-72
2021/05/25 11:24:58;;;;;;;6.45;1.45;;;12.40;97.00;;;;;;5061668;28;20524;-71
2021/05/25 11:27:31;;;;;;;2.22;1.13;;;12.30;99.30;;;;;;5091677;28;20200;-71
2021/05/25 11:30:00;;;;;;;1.70;1.00;;;12.50;99.90;;;;;;5084012;28;20195;-70
2021/05/25 11:32:28;;;;;;;1.90;1.10;;;12.50;98.80;;;;;;5084129;28;20497;-72
2021/05/25 11:34:56;;;;;;;2.00;1.23;;;12.90;99.50;;;;;;5093381;28;20207;-71
2021/05/25 11:37:23;;;;;;;4.57;1.27;;;13.50;98.30;;;;;;5093443;28;20457;-71
2021/05/25 11:39:51;;;;;;;1.00;0.90;;;13.90;98.00;;;;;;5093178;28;21260;-71
2021/05/25 11:42:23;;;;;;;2.13;1.20;;;14.20;95.10;;;;;;5092468;28;20516;-71
2021/05/25 11:44:51;;;;;;;1.93;0.90;;;14.10;94.70;;;;;;5093366;28;20457;-73
2021/05/25 11:47:18;;;;;;;4.63;1.57;;;14.00;95.30;;;;;;5093960;28;20468;-72
2021/05/25 11:49:45;;;;;;;1.93;1.17;;;13.50;95.20;;;;;;5092704;28;20850;-72
2021/05/25 11:52:23;;;;;;;2.27;1.30;;;13.30;96.40;;;;;;5092335;28;20507;-71
2021/05/25 11:54:51;;;;;;;3.00;0.90;;;13.10;95.70;;;;;;5090274;28;20960;-71
2021/05/25 11:57:38;;;;;;;2.07;1.10;;;13.30;96.00;;;;;;5090377;28;21158;-72
2021/05/25 12:00:10;;;;;;;2.27;1.00;;;13.80;95.20;;;;;;5077529;28;20552;-71
2021/05/25 12:02:37;;;;;;;1.30;1.10;;;14.20;95.40;;;;;;5090902;28;20489;-72
2021/05/25 12:05:10;;;;;;;4.90;1.50;;;14.40;94.50;;;;;;5093739;28;20810;-71
2021/05/25 12:07:37;;;;;;;2.37;1.20;;;14.80;94.90;;;;;;5093058;28;20610;-71
2021/05/25 12:10:06;;;;;;;2.60;1.20;;;15.40;94.60;;;;;;5093229;28;20949;-71
2021/05/25 12:12:32;;;;;;;1.40;1.10;;;15.70;93.80;;;;;;5092264;28;20482;-70
2021/05/25 12:15:00;;;;;;;1.87;1.10;;;16.10;93.40;;;;;;5093082;28;20464;-71
2021/05/25 12:17:29;;;;;;;2.07;1.20;;;16.30;93.10;;;;;;5093133;28;20465;-71
2021/05/25 12:19:58;;;;;;;3.47;1.33;;;16.20;90.50;;;;;;5092240;28;20462;-71
2021/05/25 12:22:35;;;;;;;3.10;1.60;;;15.70;90.00;;;;;;5091857;28;20881;-71
2021/05/25 12:25:29;;;;;;;3.70;1.47;;;15.20;91.50;;;;;;5093082;28;20990;-71
2021/05/25 12:28:06;;;;;;;3.37;1.30;;;14.70;91.90;;;;;;5034136;28;20882;-71
2021/05/25 12:30:32;;;;;;;2.60;1.30;;;14.20;91.70;;;;;;5092217;28;20449;-71
2021/05/25 12:33:00;;;;;;;3.30;1.30;;;14.10;91.80;;;;;;5091604;28;20487;-71
2021/05/25 12:35:28;;;;;;;3.73;1.20;;;14.00;91.60;;;;;;5092409;28;20843;-70
2021/05/25 12:38:02;;;;;;;2.20;1.20;;;13.80;91.80;;;;;;5092697;28;20453;-72
2021/05/25 12:40:28;;;;;;;2.30;1.40;;;13.70;90.90;;;;;;5092716;28;20488;-69
2021/05/25 12:42:55;;;;;;;1.40;1.23;;;13.60;90.80;;;;;;5092501;28;20542;-70
2021/05/25 12:45:25;;;;;;;3.43;1.27;;;13.30;92.20;;;;;;5092251;28;20466;-71
2021/05/25 12:47:53;;;;;;;3.23;1.30;;;13.10;93.90;;;;;;5091813;28;20457;-72
2021/05/25 12:50:28;;;;;;;2.90;1.30;;;13.60;94.00;;;;;;5092701;28;20548;-70
2021/05/25 12:53:03;;;;;;;2.33;1.40;;;14.10;93.40;;;;;;5090880;28;20554;-72
2021/05/25 12:55:30;;;;;;;1.93;1.20;;;14.60;92.30;;;;;;5092512;28;20914;-71
2021/05/25 12:57:56;;;;;;;1.53;1.00;;;14.90;90.10;;;;;;5091581;28;20486;-71
2021/05/25 13:00:28;;;;;;;1.67;1.10;;;15.20;89.90;;;;;;5091509;28;20503;-69
2021/05/25 13:02:55;;;;;;;1.63;1.10;;;15.40;90.70;;;;;;5092206;28;20568;-71
2021/05/25 13:05:23;;;;;;;1.03;0.93;;;15.60;89.80;;;;;;5092479;28;20465;-71
2021/05/25 13:07:55;;;;;;;2.80;1.10;;;15.80;90.80;;;;;;5091739;28;20465;-72
2021/05/25 13:10:32;;;;;;;2.63;1.10;;;16.00;89.40;;;;;;5091267;28;20458;-72